sensor_id;sensor_type;location;lat;lon;timestamp;pressure;altitude;pressure_sealevel;temperature;humidity
50444;BME280;36370;52.216;21.142;2022-10-16T00:00:12;100636.16;;;13.86;100.00
50444;BME280;36370;52.216;21.142;2022-10-16T00:04:34;100638.47;;;13.91;100.00
50444;BME280;36370;52.216;21.142;2022-10-16T00:08:36;100643.53;;;13.81;100.00
50444;BME280;36370;52.216;21.142;2022-10-16T00:12:38;100645.84;;;13.86;100.00
50444;BME280;36370;52.216;21.142;2022-10-16T00:16:41;100652.94;;;13.85;100.00
50444;BME280;36370;52.216;21.142;2022-10-16T00:20:43;100633.41;;;13.75;100.00
50444;BME280;36370;52.216;21.142;2022-10-16T00:24:45;100632.47;;;13.76;100.00
50444;BME280;36370;52.216;21.142;2022-10-16T00:28:48;100631.00;;;13.72;100.00
50444;BME280;36370;52.216;21.142;2022-10-16T00:32:50;100625.59;;;13.73;100.00
50444;BME280;36370;52.216;21.142;2022-10-16T00:36:52;100628.34;;;13.72;100.00
50444;BME280;36370;52.216;21.142;2022-10-16T00:40:54;100617.69;;;13.73;100.00
50444;BME280;36370;52.216;21.142;2022-10-16T00:44:57;100625.50;;;13.75;100.00
50444;BME280;36370;52.216;21.142;2022-10-16T00:49:12;100627.00;;;13.66;100.00
50444;BME280;36370;52.216;21.142;2022-10-16T00:53:14;100631.22;;;13.56;100.00
50444;BME280;36370;52.216;21.142;2022-10-16T00:57:16;100636.22;;;13.48;100.00
50444;BME280;36370;52.216;21.142;2022-10-16T01:01:18;100652.16;;;13.33;100.00
50444;BME280;36370;52.216;21.142;2022-10-16T01:05:22;100654.69;;;13.35;100.00
50444;BME280;36370;52.216;21.142;2022-10-16T01:09:33;100663.94;;;13.27;100.00
50444;BME280;36370;52.216;21.142;2022-10-16T01:13:42;100654.22;;;13.28;100.00
50444;BME280;36370;52.216;21.142;2022-10-16T01:18:01;100658.28;;;13.34;100.00
50444;BME280;36370;52.216;21.142;2022-10-16T01:22:09;100652.06;;;13.35;100.00
50444;BME280;36370;52.216;21.142;2022-10-16T01:30:27;100650.03;;;13.38;100.00
50444;BME280;36370;52.216;21.142;2022-10-16T01:34:44;100654.69;;;13.48;100.00
50444;BME280;36370;52.216;21.142;2022-10-16T01:38:51;100666.72;;;13.39;100.00
50444;BME280;36370;52.216;21.142;2022-10-16T01:43:02;100659.78;;;13.38;100.00
50444;BME280;36370;52.216;21.142;2022-10-16T01:47:05;100670.94;;;13.41;100.00
50444;BME280;36370;52.216;21.142;2022-10-16T01:51:12;100668.41;;;13.40;100.00
50444;BME280;36370;52.216;21.142;2022-10-16T01:55:19;100670.91;;;13.28;100.00
50444;BME280;36370;52.216;21.142;2022-10-16T01:59:26;100675.34;;;13.28;100.00
50444;BME280;36370;52.216;21.142;2022-10-16T02:03:31;100656.88;;;13.28;100.00
50444;BME280;36370;52.216;21.142;2022-10-16T02:07:33;100661.66;;;13.36;100.00
50444;BME280;36370;52.216;21.142;2022-10-16T02:11:35;100667.09;;;13.33;100.00
50444;BME280;36370;52.216;21.142;2022-10-16T02:15:37;100667.84;;;13.22;100.00
50444;BME280;36370;52.216;21.142;2022-10-16T02:19:40;100675.66;;;13.23;100.00
50444;BME280;36370;52.216;21.142;2022-10-16T02:23:51;100671.66;;;13.18;100.00
50444;BME280;36370;52.216;21.142;2022-10-16T02:28:13;100670.16;;;13.26;100.00
50444;BME280;36370;52.216;21.142;2022-10-16T02:32:24;100655.50;;;13.22;100.00
50444;BME280;36370;52.216;21.142;2022-10-16T02:36:29;100658.00;;;13.11;100.00
50444;BME280;36370;52.216;21.142;2022-10-16T02:40:31;100666.47;;;13.16;100.00
50444;BME280;36370;52.216;21.142;2022-10-16T02:44:33;100674.91;;;13.08;100.00
50444;BME280;36370;52.216;21.142;2022-10-16T02:48:35;100669.84;;;13.18;100.00
50444;BME280;36370;52.216;21.142;2022-10-16T02:52:37;100667.81;;;13.09;100.00
50444;BME280;36370;52.216;21.142;2022-10-16T02:56:39;100674.66;;;12.99;100.00
50444;BME280;36370;52.216;21.142;2022-10-16T03:00:41;100675.22;;;13.04;100.00
50444;BME280;36370;52.216;21.142;2022-10-16T03:04:44;100685.22;;;12.99;100.00
50444;BME280;36370;52.216;21.142;2022-10-16T03:08:45;100688.59;;;13.01;100.00
50444;BME280;36370;52.216;21.142;2022-10-16T03:12:47;100690.19;;;13.03;100.00
50444;BME280;36370;52.216;21.142;2022-10-16T03:16:49;100692.81;;;13.03;100.00
50444;BME280;36370;52.216;21.142;2022-10-16T03:20:51;100696.31;;;13.04;100.00
50444;BME280;36370;52.216;21.142;2022-10-16T03:24:53;100694.41;;;13.06;100.00
50444;BME280;36370;52.216;21.142;2022-10-16T03:28:55;100700.97;;;13.13;100.00
50444;BME280;36370;52.216;21.142;2022-10-16T03:32:57;100701.19;;;13.10;100.00
50444;BME280;36370;52.216;21.142;2022-10-16T03:36:58;100705.50;;;13.11;100.00
50444;BME280;36370;52.216;21.142;2022-10-16T03:41:00;100708.13;;;13.11;100.00
50444;BME280;36370;52.216;21.142;2022-10-16T03:45:03;100704.75;;;13.09;100.00
50444;BME280;36370;52.216;21.142;2022-10-16T03:49:05;100703.31;;;13.18;100.00
50444;BME280;36370;52.216;21.142;2022-10-16T03:53:10;100701.81;;;13.14;100.00
50444;BME280;36370;52.216;21.142;2022-10-16T03:57:12;100697.88;;;13.06;100.00
50444;BME280;36370;52.216;21.142;2022-10-16T04:01:14;100709.94;;;13.10;100.00
50444;BME280;36370;52.216;21.142;2022-10-16T04:05:15;100708.22;;;13.09;100.00
50444;BME280;36370;52.216;21.142;2022-10-16T04:09:17;100707.81;;;13.03;100.00
50444;BME280;36370;52.216;21.142;2022-10-16T04:13:19;100713.81;;;13.05;100.00
50444;BME280;36370;52.216;21.142;2022-10-16T04:17:21;100707.56;;;12.93;100.00
50444;BME280;36370;52.216;21.142;2022-10-16T04:21:23;100702.03;;;12.83;100.00
50444;BME280;36370;52.216;21.142;2022-10-16T04:25:25;100710.69;;;12.72;100.00
50444;BME280;36370;52.216;21.142;2022-10-16T04:29:27;100719.59;;;12.57;100.00
50444;BME280;36370;52.216;21.142;2022-10-16T04:33:29;100733.34;;;12.48;100.00
50444;BME280;36370;52.216;21.142;2022-10-16T04:37:31;100722.91;;;12.32;100.00
50444;BME280;36370;52.216;21.142;2022-10-16T04:41:32;100729.69;;;12.36;100.00
50444;BME280;36370;52.216;21.142;2022-10-16T04:45:34;100733.75;;;12.27;100.00
50444;BME280;36370;52.216;21.142;2022-10-16T04:49:36;100741.78;;;12.11;100.00
50444;BME280;36370;52.216;21.142;2022-10-16T04:53:38;100752.31;;;12.11;100.00
50444;BME280;36370;52.216;21.142;2022-10-16T04:57:40;100750.72;;;12.23;100.00
50444;BME280;36370;52.216;21.142;2022-10-16T05:01:42;100759.81;;;12.32;100.00
50444;BME280;36370;52.216;21.142;2022-10-16T05:05:45;100760.56;;;12.34;100.00
50444;BME280;36370;52.216;21.142;2022-10-16T05:09:47;100762.16;;;12.36;100.00
50444;BME280;36370;52.216;21.142;2022-10-16T05:13:48;100761.13;;;12.39;100.00
50444;BME280;36370;52.216;21.142;2022-10-16T05:17:55;100763.84;;;12.37;100.00
50444;BME280;36370;52.216;21.142;2022-10-16T05:21:57;100774.78;;;12.31;100.00
50444;BME280;36370;52.216;21.142;2022-10-16T05:25:59;100777.69;;;12.27;100.00
50444;BME280;36370;52.216;21.142;2022-10-16T05:30:02;100787.47;;;12.39;100.00
50444;BME280;36370;52.216;21.142;2022-10-16T05:34:07;100789.88;;;12.56;100.00
50444;BME280;36370;52.216;21.142;2022-10-16T05:38:09;100784.81;;;12.68;100.00
50444;BME280;36370;52.216;21.142;2022-10-16T05:42:11;100780.06;;;12.73;100.00
50444;BME280;36370;52.216;21.142;2022-10-16T05:46:13;100778.47;;;12.70;100.00
50444;BME280;36370;52.216;21.142;2022-10-16T05:50:15;100775.09;;;12.68;100.00
50444;BME280;36370;52.216;21.142;2022-10-16T05:54:17;100780.41;;;12.54;100.00
50444;BME280;36370;52.216;21.142;2022-10-16T05:58:19;100771.72;;;12.52;100.00
50444;BME280;36370;52.216;21.142;2022-10-16T06:02:20;100789.81;;;12.44;100.00
50444;BME280;36370;52.216;21.142;2022-10-16T06:06:25;100797.72;;;12.44;100.00
50444;BME280;36370;52.216;21.142;2022-10-16T06:10:27;100813.81;;;12.39;100.00
50444;BME280;36370;52.216;21.142;2022-10-16T06:14:30;100832.47;;;12.36;100.00
50444;BME280;36370;52.216;21.142;2022-10-16T06:18:32;100815.88;;;12.48;100.00
50444;BME280;36370;52.216;21.142;2022-10-16T06:22:34;100808.44;;;12.69;100.00
50444;BME280;36370;52.216;21.142;2022-10-16T06:26:37;100814.88;;;12.78;100.00
50444;BME280;36370;52.216;21.142;2022-10-16T06:30:38;100806.09;;;12.92;100.00
50444;BME280;36370;52.216;21.142;2022-10-16T06:34:40;100805.22;;;13.19;100.00
50444;BME280;36370;52.216;21.142;2022-10-16T06:38:44;100808.59;;;13.35;100.00
50444;BME280;36370;52.216;21.142;2022-10-16T06:42:46;100816.84;;;13.43;100.00
50444;BME280;36370;52.216;21.142;2022-10-16T06:46:48;100821.50;;;13.53;100.00
50444;BME280;36370;52.216;21.142;2022-10-16T06:55:03;100828.00;;;13.74;100.00
50444;BME280;36370;52.216;21.142;2022-10-16T06:59:05;100844.50;;;13.91;100.00
50444;BME280;36370;52.216;21.142;2022-10-16T07:03:07;100857.72;;;14.04;100.00
50444;BME280;36370;52.216;21.142;2022-10-16T07:07:08;100859.72;;;14.13;100.00
50444;BME280;36370;52.216;21.142;2022-10-16T07:11:12;100869.44;;;14.25;100.00
50444;BME280;36370;52.216;21.142;2022-10-16T07:15:14;100887.94;;;14.38;100.00
50444;BME280;36370;52.216;21.142;2022-10-16T07:19:16;100904.22;;;14.58;100.00
50444;BME280;36370;52.216;21.142;2022-10-16T07:23:19;100914.16;;;14.54;100.00
50444;BME280;36370;52.216;21.142;2022-10-16T07:27:21;100905.69;;;14.49;100.00
50444;BME280;36370;52.216;21.142;2022-10-16T07:31:26;100899.56;;;14.48;100.00
50444;BME280;36370;52.216;21.142;2022-10-16T07:35:28;100908.47;;;14.60;100.00
50444;BME280;36370;52.216;21.142;2022-10-16T07:39:29;100885.41;;;14.62;100.00
50444;BME280;36370;52.216;21.142;2022-10-16T07:43:32;100887.59;;;14.81;100.00
50444;BME280;36370;52.216;21.142;2022-10-16T07:47:33;100889.31;;;14.82;100.00
50444;BME280;36370;52.216;21.142;2022-10-16T07:51:35;100875.75;;;14.87;100.00
50444;BME280;36370;52.216;21.142;2022-10-16T07:55:37;100877.22;;;15.15;100.00
50444;BME280;36370;52.216;21.142;2022-10-16T07:59:39;100890.19;;;15.55;100.00
50444;BME280;36370;52.216;21.142;2022-10-16T08:03:46;100911.09;;;16.07;100.00
50444;BME280;36370;52.216;21.142;2022-10-16T08:07:49;100939.91;;;16.23;100.00
50444;BME280;36370;52.216;21.142;2022-10-16T08:11:51;100935.38;;;16.47;100.00
50444;BME280;36370;52.216;21.142;2022-10-16T08:15:54;100947.69;;;16.71;100.00
50444;BME280;36370;52.216;21.142;2022-10-16T08:19:56;100964.56;;;16.70;100.00
50444;BME280;36370;52.216;21.142;2022-10-16T08:23:59;100963.59;;;16.71;100.00
50444;BME280;36370;52.216;21.142;2022-10-16T08:28:06;100975.69;;;16.75;100.00
50444;BME280;36370;52.216;21.142;2022-10-16T08:32:08;100979.88;;;16.66;100.00
50444;BME280;36370;52.216;21.142;2022-10-16T08:36:11;100985.69;;;16.83;100.00
50444;BME280;36370;52.216;21.142;2022-10-16T08:40:22;100976.50;;;17.32;100.00
50444;BME280;36370;52.216;21.142;2022-10-16T08:48:54;100992.56;;;16.74;100.00
50444;BME280;36370;52.216;21.142;2022-10-16T08:52:58;100993.16;;;16.78;100.00
50444;BME280;36370;52.216;21.142;2022-10-16T08:57:09;100995.22;;;16.85;100.00
50444;BME280;36370;52.216;21.142;2022-10-16T09:01:14;101003.94;;;16.99;100.00
50444;BME280;36370;52.216;21.142;2022-10-16T09:05:46;100997.69;;;17.00;100.00
50444;BME280;36370;52.216;21.142;2022-10-16T09:14:47;101002.84;;;17.13;100.00
50444;BME280;36370;52.216;21.142;2022-10-16T09:19:00;101016.09;;;17.35;100.00
50444;BME280;36370;52.216;21.142;2022-10-16T09:27:13;100999.56;;;17.87;100.00
50444;BME280;36370;52.216;21.142;2022-10-16T09:31:19;101001.88;;;18.12;100.00
50444;BME280;36370;52.216;21.142;2022-10-16T09:35:33;101002.88;;;18.33;100.00
50444;BME280;36370;52.216;21.142;2022-10-16T09:39:51;101007.41;;;18.42;100.00
50444;BME280;36370;52.216;21.142;2022-10-16T09:43:57;100996.63;;;18.43;100.00
50444;BME280;36370;52.216;21.142;2022-10-16T09:48:08;101000.56;;;18.70;100.00
50444;BME280;36370;52.216;21.142;2022-10-16T09:52:13;101010.50;;;18.89;100.00
50444;BME280;36370;52.216;21.142;2022-10-16T09:56:27;101007.50;;;18.82;100.00
50444;BME280;36370;52.216;21.142;2022-10-16T10:00:29;101014.78;;;18.59;100.00
50444;BME280;36370;52.216;21.142;2022-10-16T10:04:41;101007.31;;;18.74;100.00
50444;BME280;36370;52.216;21.142;2022-10-16T10:08:58;101002.75;;;19.17;100.00
50444;BME280;36370;52.216;21.142;2022-10-16T10:13:00;100998.88;;;19.31;100.00
50444;BME280;36370;52.216;21.142;2022-10-16T10:21:14;101016.97;;;19.37;100.00
50444;BME280;36370;52.216;21.142;2022-10-16T10:25:38;101022.53;;;19.14;100.00
50444;BME280;36370;52.216;21.142;2022-10-16T10:29:49;101009.50;;;19.21;100.00
50444;BME280;36370;52.216;21.142;2022-10-16T10:34:35;100994.91;;;19.15;100.00
50444;BME280;36370;52.216;21.142;2022-10-16T10:38:50;100986.69;;;19.38;100.00
50444;BME280;36370;52.216;21.142;2022-10-16T10:43:12;100990.94;;;19.50;100.00
50444;BME280;36370;52.216;21.142;2022-10-16T10:47:37;100985.59;;;19.50;100.00
50444;BME280;36370;52.216;21.142;2022-10-16T11:09:11;100984.13;;;19.97;100.00
50444;BME280;36370;52.216;21.142;2022-10-16T11:13:42;100988.59;;;19.96;100.00
50444;BME280;36370;52.216;21.142;2022-10-16T11:17:52;100985.66;;;20.09;100.00
50444;BME280;36370;52.216;21.142;2022-10-16T11:22:02;100982.16;;;19.89;100.00
50444;BME280;36370;52.216;21.142;2022-10-16T11:26:26;100979.91;;;19.84;100.00
50444;BME280;36370;52.216;21.142;2022-10-16T11:30:31;100983.41;;;19.85;100.00
50444;BME280;36370;52.216;21.142;2022-10-16T11:34:40;100983.56;;;20.03;100.00
50444;BME280;36370;52.216;21.142;2022-10-16T11:39:03;100985.38;;;19.93;100.00
50444;BME280;36370;52.216;21.142;2022-10-16T11:43:26;101001.53;;;19.81;100.00
50444;BME280;36370;52.216;21.142;2022-10-16T11:52:24;100994.94;;;20.05;100.00
50444;BME280;36370;52.216;21.142;2022-10-16T11:56:29;100991.13;;;20.17;100.00
50444;BME280;36370;52.216;21.142;2022-10-16T12:05:21;100979.78;;;20.62;100.00
50444;BME280;36370;52.216;21.142;2022-10-16T12:09:27;100982.91;;;20.58;100.00
50444;BME280;36370;52.216;21.142;2022-10-16T12:13:39;100985.44;;;20.59;100.00
50444;BME280;36370;52.216;21.142;2022-10-16T12:17:41;100984.09;;;20.16;100.00
50444;BME280;36370;52.216;21.142;2022-10-16T12:21:43;100991.81;;;20.19;100.00
50444;BME280;36370;52.216;21.142;2022-10-16T12:25:54;100990.28;;;19.97;100.00
50444;BME280;36370;52.216;21.142;2022-10-16T12:29:58;101000.53;;;20.02;100.00
50444;BME280;36370;52.216;21.142;2022-10-16T12:34:02;101006.84;;;20.01;100.00
50444;BME280;36370;52.216;21.142;2022-10-16T12:38:06;101003.91;;;20.04;100.00
50444;BME280;36370;52.216;21.142;2022-10-16T12:50:36;101019.03;;;19.64;100.00
50444;BME280;36370;52.216;21.142;2022-10-16T12:54:38;101021.13;;;19.70;100.00
50444;BME280;36370;52.216;21.142;2022-10-16T12:58:52;101024.91;;;19.68;100.00
50444;BME280;36370;52.216;21.142;2022-10-16T13:07:29;101016.34;;;19.54;100.00
50444;BME280;36370;52.216;21.142;2022-10-16T13:20:30;100997.38;;;19.38;100.00
50444;BME280;36370;52.216;21.142;2022-10-16T13:24:50;101012.38;;;19.39;100.00
50444;BME280;36370;52.216;21.142;2022-10-16T13:28:58;101013.81;;;19.53;100.00
50444;BME280;36370;52.216;21.142;2022-10-16T13:33:24;101024.97;;;19.37;100.00
50444;BME280;36370;52.216;21.142;2022-10-16T13:37:31;101027.91;;;19.34;100.00
50444;BME280;36370;52.216;21.142;2022-10-16T13:41:33;101030.56;;;19.24;100.00
50444;BME280;36370;52.216;21.142;2022-10-16T13:45:35;101028.31;;;19.29;100.00
50444;BME280;36370;52.216;21.142;2022-10-16T13:49:37;101026.78;;;19.27;100.00
50444;BME280;36370;52.216;21.142;2022-10-16T13:53:39;101029.13;;;19.20;100.00
50444;BME280;36370;52.216;21.142;2022-10-16T13:57:42;101047.09;;;19.28;100.00
50444;BME280;36370;52.216;21.142;2022-10-16T14:01:45;101042.78;;;19.27;100.00
50444;BME280;36370;52.216;21.142;2022-10-16T14:05:49;101031.84;;;19.30;100.00
50444;BME280;36370;52.216;21.142;2022-10-16T14:09:52;101027.22;;;19.32;100.00
50444;BME280;36370;52.216;21.142;2022-10-16T14:13:56;101022.19;;;19.38;100.00
50444;BME280;36370;52.216;21.142;2022-10-16T14:17:58;101025.50;;;19.31;100.00
50444;BME280;36370;52.216;21.142;2022-10-16T14:22:01;101027.47;;;19.29;100.00
50444;BME280;36370;52.216;21.142;2022-10-16T14:30:20;101036.28;;;19.19;100.00
50444;BME280;36370;52.216;21.142;2022-10-16T14:34:31;101046.41;;;19.26;100.00
50444;BME280;36370;52.216;21.142;2022-10-16T14:38:35;101044.13;;;19.21;100.00
50444;BME280;36370;52.216;21.142;2022-10-16T14:42:37;101049.31;;;19.13;100.00
50444;BME280;36370;52.216;21.142;2022-10-16T14:46:43;101038.91;;;19.10;100.00
50444;BME280;36370;52.216;21.142;2022-10-16T14:50:46;101041.25;;;19.03;100.00
50444;BME280;36370;52.216;21.142;2022-10-16T14:54:48;101043.91;;;19.03;100.00
50444;BME280;36370;52.216;21.142;2022-10-16T14:58:51;101030.28;;;18.96;100.00
50444;BME280;36370;52.216;21.142;2022-10-16T15:02:54;101040.78;;;18.88;100.00
50444;BME280;36370;52.216;21.142;2022-10-16T15:06:55;101042.84;;;18.84;100.00
50444;BME280;36370;52.216;21.142;2022-10-16T15:10:57;101034.66;;;18.76;100.00
50444;BME280;36370;52.216;21.142;2022-10-16T15:14:59;101032.97;;;18.75;100.00
50444;BME280;36370;52.216;21.142;2022-10-16T15:19:01;101038.69;;;18.71;100.00
50444;BME280;36370;52.216;21.142;2022-10-16T15:23:05;101042.00;;;18.63;100.00
50444;BME280;36370;52.216;21.142;2022-10-16T15:27:08;101030.13;;;18.46;100.00
50444;BME280;36370;52.216;21.142;2022-10-16T15:31:10;101029.78;;;18.39;100.00
50444;BME280;36370;52.216;21.142;2022-10-16T15:35:12;101012.59;;;18.22;100.00
50444;BME280;36370;52.216;21.142;2022-10-16T15:39:19;101019.84;;;18.20;100.00
50444;BME280;36370;52.216;21.142;2022-10-16T15:43:21;101021.56;;;18.21;100.00
50444;BME280;36370;52.216;21.142;2022-10-16T15:47:23;101015.75;;;18.16;100.00
50444;BME280;36370;52.216;21.142;2022-10-16T15:51:26;101020.75;;;18.09;100.00
50444;BME280;36370;52.216;21.142;2022-10-16T15:55:34;101024.38;;;18.08;100.00
50444;BME280;36370;52.216;21.142;2022-10-16T15:59:37;101014.28;;;18.02;100.00
50444;BME280;36370;52.216;21.142;2022-10-16T16:03:39;101007.91;;;17.93;100.00
50444;BME280;36370;52.216;21.142;2022-10-16T16:07:42;101016.59;;;17.84;100.00
50444;BME280;36370;52.216;21.142;2022-10-16T16:11:43;101014.69;;;17.75;100.00
50444;BME280;36370;52.216;21.142;2022-10-16T16:15:45;101019.06;;;17.65;100.00
50444;BME280;36370;52.216;21.142;2022-10-16T16:19:47;101028.81;;;17.75;100.00
50444;BME280;36370;52.216;21.142;2022-10-16T16:23:49;101045.38;;;17.79;100.00
50444;BME280;36370;52.216;21.142;2022-10-16T16:27:50;101056.72;;;17.81;100.00
50444;BME280;36370;52.216;21.142;2022-10-16T16:31:52;101056.00;;;17.79;100.00
50444;BME280;36370;52.216;21.142;2022-10-16T16:36:00;101055.13;;;17.79;100.00
50444;BME280;36370;52.216;21.142;2022-10-16T16:40:02;101049.63;;;17.70;100.00
50444;BME280;36370;52.216;21.142;2022-10-16T16:44:06;101040.09;;;17.56;100.00
50444;BME280;36370;52.216;21.142;2022-10-16T16:48:09;101039.13;;;17.46;100.00
50444;BME280;36370;52.216;21.142;2022-10-16T16:52:11;101042.66;;;17.35;100.00
50444;BME280;36370;52.216;21.142;2022-10-16T16:56:13;101033.16;;;17.21;100.00
50444;BME280;36370;52.216;21.142;2022-10-16T17:00:15;101034.47;;;17.04;100.00
50444;BME280;36370;52.216;21.142;2022-10-16T17:04:17;101033.34;;;16.84;100.00
50444;BME280;36370;52.216;21.142;2022-10-16T17:08:20;101024.38;;;16.63;100.00
50444;BME280;36370;52.216;21.142;2022-10-16T17:12:22;101030.38;;;16.42;100.00
50444;BME280;36370;52.216;21.142;2022-10-16T17:16:27;101033.44;;;16.25;100.00
50444;BME280;36370;52.216;21.142;2022-10-16T17:20:30;101051.22;;;16.11;100.00
50444;BME280;36370;52.216;21.142;2022-10-16T17:24:31;101043.44;;;15.97;100.00
50444;BME280;36370;52.216;21.142;2022-10-16T17:28:34;101054.38;;;15.92;100.00
50444;BME280;36370;52.216;21.142;2022-10-16T17:32:36;101059.41;;;15.71;100.00
50444;BME280;36370;52.216;21.142;2022-10-16T17:36:38;101058.47;;;15.72;100.00
50444;BME280;36370;52.216;21.142;2022-10-16T17:40:44;101058.59;;;15.58;100.00
50444;BME280;36370;52.216;21.142;2022-10-16T17:44:46;101078.22;;;15.42;100.00
50444;BME280;36370;52.216;21.142;2022-10-16T17:48:50;101092.56;;;15.40;100.00
50444;BME280;36370;52.216;21.142;2022-10-16T17:52:53;101096.03;;;15.40;100.00
50444;BME280;36370;52.216;21.142;2022-10-16T17:56:55;101096.47;;;15.34;100.00
50444;BME280;36370;52.216;21.142;2022-10-16T18:00:57;101103.88;;;15.42;100.00
50444;BME280;36370;52.216;21.142;2022-10-16T18:04:59;101098.25;;;15.47;100.00
50444;BME280;36370;52.216;21.142;2022-10-16T18:09:02;101112.56;;;15.57;100.00
50444;BME280;36370;52.216;21.142;2022-10-16T18:13:04;101102.69;;;15.59;100.00
50444;BME280;36370;52.216;21.142;2022-10-16T18:17:06;101102.69;;;15.59;100.00
50444;BME280;36370;52.216;21.142;2022-10-16T18:21:09;101110.94;;;15.54;100.00
50444;BME280;36370;52.216;21.142;2022-10-16T18:25:11;101117.94;;;15.42;100.00
50444;BME280;36370;52.216;21.142;2022-10-16T18:29:13;101123.88;;;15.33;100.00
50444;BME280;36370;52.216;21.142;2022-10-16T18:33:15;101126.63;;;15.32;100.00
50444;BME280;36370;52.216;21.142;2022-10-16T18:37:17;101128.66;;;15.41;100.00
50444;BME280;36370;52.216;21.142;2022-10-16T18:41:21;101124.72;;;15.47;100.00
50444;BME280;36370;52.216;21.142;2022-10-16T18:45:23;101133.84;;;15.55;100.00
50444;BME280;36370;52.216;21.142;2022-10-16T18:49:25;101138.16;;;15.69;100.00
50444;BME280;36370;52.216;21.142;2022-10-16T18:53:27;101140.94;;;15.68;100.00
50444;BME280;36370;52.216;21.142;2022-10-16T18:57:33;101130.81;;;15.86;100.00
50444;BME280;36370;52.216;21.142;2022-10-16T19:01:36;101137.19;;;15.83;100.00
50444;BME280;36370;52.216;21.142;2022-10-16T19:05:43;101134.53;;;15.83;100.00
50444;BME280;36370;52.216;21.142;2022-10-16T19:09:48;101138.28;;;15.81;100.00
50444;BME280;36370;52.216;21.142;2022-10-16T19:13:50;101146.34;;;15.66;100.00
50444;BME280;36370;52.216;21.142;2022-10-16T19:17:53;101150.06;;;15.51;100.00
50444;BME280;36370;52.216;21.142;2022-10-16T19:21:55;101161.59;;;15.37;100.00
50444;BME280;36370;52.216;21.142;2022-10-16T19:26:14;101178.00;;;15.16;100.00
50444;BME280;36370;52.216;21.142;2022-10-16T19:30:18;101181.34;;;14.93;100.00
50444;BME280;36370;52.216;21.142;2022-10-16T19:34:20;101189.47;;;14.77;100.00
50444;BME280;36370;52.216;21.142;2022-10-16T19:38:21;101199.34;;;14.60;100.00
50444;BME280;36370;52.216;21.142;2022-10-16T19:42:23;101204.63;;;14.33;100.00
50444;BME280;36370;52.216;21.142;2022-10-16T19:46:25;101217.19;;;14.15;100.00
50444;BME280;36370;52.216;21.142;2022-10-16T19:50:27;101218.56;;;14.08;100.00
50444;BME280;36370;52.216;21.142;2022-10-16T19:54:29;101219.41;;;13.94;100.00
50444;BME280;36370;52.216;21.142;2022-10-16T19:58:31;101215.44;;;13.87;100.00
50444;BME280;36370;52.216;21.142;2022-10-16T20:02:34;101230.25;;;13.75;100.00
50444;BME280;36370;52.216;21.142;2022-10-16T20:06:36;101234.50;;;13.63;100.00
50444;BME280;36370;52.216;21.142;2022-10-16T20:10:38;101238.25;;;13.44;100.00
50444;BME280;36370;52.216;21.142;2022-10-16T20:14:40;101248.34;;;13.38;100.00
50444;BME280;36370;52.216;21.142;2022-10-16T20:18:42;101256.44;;;13.19;100.00
50444;BME280;36370;52.216;21.142;2022-10-16T20:22:44;101280.56;;;12.97;100.00
50444;BME280;36370;52.216;21.142;2022-10-16T20:26:45;101271.03;;;12.94;100.00
50444;BME280;36370;52.216;21.142;2022-10-16T20:30:49;101284.06;;;12.97;100.00
50444;BME280;36370;52.216;21.142;2022-10-16T20:34:50;101285.78;;;12.82;100.00
50444;BME280;36370;52.216;21.142;2022-10-16T20:38:53;101297.28;;;12.81;100.00
50444;BME280;36370;52.216;21.142;2022-10-16T20:42:54;101312.91;;;12.84;100.00
50444;BME280;36370;52.216;21.142;2022-10-16T20:46:56;101324.06;;;12.73;100.00
50444;BME280;36370;52.216;21.142;2022-10-16T20:50:58;101319.84;;;12.71;100.00
50444;BME280;36370;52.216;21.142;2022-10-16T20:55:00;101325.00;;;12.56;100.00
50444;BME280;36370;52.216;21.142;2022-10-16T20:59:03;101327.81;;;12.53;100.00
50444;BME280;36370;52.216;21.142;2022-10-16T21:03:05;101326.19;;;12.51;100.00
50444;BME280;36370;52.216;21.142;2022-10-16T21:07:07;101318.53;;;12.46;100.00
50444;BME280;36370;52.216;21.142;2022-10-16T21:11:19;101329.41;;;12.40;100.00
50444;BME280;36370;52.216;21.142;2022-10-16T21:15:22;101313.94;;;12.34;100.00
50444;BME280;36370;52.216;21.142;2022-10-16T21:19:24;101328.13;;;12.31;100.00
50444;BME280;36370;52.216;21.142;2022-10-16T21:23:26;101322.16;;;12.28;100.00
50444;BME280;36370;52.216;21.142;2022-10-16T21:27:28;101329.84;;;12.15;100.00
50444;BME280;36370;52.216;21.142;2022-10-16T21:31:30;101329.69;;;12.18;100.00
50444;BME280;36370;52.216;21.142;2022-10-16T21:35:32;101338.78;;;12.12;100.00
50444;BME280;36370;52.216;21.142;2022-10-16T21:39:34;101343.94;;;11.98;100.00
50444;BME280;36370;52.216;21.142;2022-10-16T21:43:36;101348.63;;;11.91;100.00
50444;BME280;36370;52.216;21.142;2022-10-16T21:47:38;101356.75;;;11.86;100.00
50444;BME280;36370;52.216;21.142;2022-10-16T21:51:43;101341.91;;;11.85;100.00
50444;BME280;36370;52.216;21.142;2022-10-16T21:55:45;101335.09;;;11.81;100.00
50444;BME280;36370;52.216;21.142;2022-10-16T21:59:48;101337.28;;;11.73;100.00
50444;BME280;36370;52.216;21.142;2022-10-16T22:03:50;101346.84;;;11.57;100.00